TimeCST,TemperatureF,Dew PointF,Humidity,Sea Level PressureIn,VisibilityMPH,Wind Direction,Wind SpeedMPH,Gust SpeedMPH,PrecipitationIn,Events,Conditions,WindDirDegrees,DateUTC
12:15 AM,30.2,21.2,69,29.98,10.0,South,6.9,-,N/A,,Clear,190,2013-01-08 06:15:00
12:35 AM,30.2,21.2,69,29.97,10.0,South,5.8,-,N/A,,Clear,190,2013-01-08 06:35:00
12:55 AM,30.2,21.2,69,29.96,10.0,SSW,5.8,-,N/A,,Clear,200,2013-01-08 06:55:00
1:15 AM,30.2,21.2,69,29.96,10.0,South,5.8,-,N/A,,Clear,190,2013-01-08 07:15:00
1:35 AM,30.2,21.2,69,29.96,10.0,SSW,6.9,-,N/A,,Clear,200,2013-01-08 07:35:00
1:55 AM,30.2,23.0,75,29.95,10.0,South,6.9,-,N/A,,Clear,190,2013-01-08 07:55:00
2:15 AM,30.2,23.0,75,29.95,10.0,SSW,4.6,-,N/A,,Clear,210,2013-01-08 08:15:00
2:35 AM,30.2,23.0,75,29.95,10.0,SW,4.6,-,N/A,,Clear,220,2013-01-08 08:35:00
2:55 AM,30.2,24.8,80,29.96,10.0,SW,4.6,-,N/A,,Clear,230,2013-01-08 08:55:00
3:15 AM,28.4,23.0,80,29.96,10.0,West,4.6,-,N/A,,Clear,280,2013-01-08 09:15:00
3:35 AM,30.2,26.6,86,29.96,10.0,SW,3.5,-,N/A,,Clear,230,2013-01-08 09:35:00
3:55 AM,30.2,26.6,86,29.95,10.0,SW,4.6,-,N/A,,Clear,230,2013-01-08 09:55:00
4:15 AM,30.2,26.6,86,29.95,10.0,SW,4.6,-,N/A,,Clear,220,2013-01-08 10:15:00
4:35 AM,30.2,26.6,86,29.94,10.0,SSW,5.8,-,N/A,,Clear,210,2013-01-08 10:35:00
4:55 AM,30.2,26.6,86,29.94,10.0,SW,4.6,-,N/A,,Clear,220,2013-01-08 10:55:00
5:15 AM,26.6,23.0,86,29.94,10.0,WSW,3.5,-,N/A,,Clear,250,2013-01-08 11:15:00
5:35 AM,28.4,23.0,80,29.93,10.0,SW,4.6,-,N/A,,Clear,220,2013-01-08 11:35:00
5:55 AM,28.4,23.0,80,29.95,10.0,SW,5.8,-,N/A,,Clear,230,2013-01-08 11:55:00
6:15 AM,26.6,21.2,80,29.95,10.0,WSW,3.5,-,N/A,,Clear,240,2013-01-08 12:15:00
6:35 AM,28.4,24.8,86,29.95,10.0,WSW,3.5,-,N/A,,Clear,240,2013-01-08 12:35:00
6:55 AM,26.6,23.0,86,29.95,10.0,WSW,3.5,-,N/A,,Clear,240,2013-01-08 12:55:00
7:15 AM,26.6,21.2,80,29.95,10.0,WSW,4.6,-,N/A,,Clear,250,2013-01-08 13:15:00
7:35 AM,26.6,23.0,86,29.96,10.0,WSW,3.5,-,N/A,,Clear,250,2013-01-08 13:35:00
7:55 AM,26.6,23.0,86,29.97,10.0,WSW,4.6,-,N/A,,Clear,240,2013-01-08 13:55:00
8:15 AM,26.6,23.0,86,29.97,10.0,West,3.5,-,N/A,,Clear,270,2013-01-08 14:15:00
8:35 AM,28.4,24.8,86,29.99,10.0,West,4.6,-,N/A,,Clear,280,2013-01-08 14:35:00
8:55 AM,30.2,26.6,86,29.99,10.0,West,3.5,-,N/A,,Clear,280,2013-01-08 14:55:00
9:15 AM,32.0,28.4,87,30.00,10.0,West,3.5,-,N/A,,Clear,270,2013-01-08 15:15:00
9:35 AM,33.8,30.2,87,30.00,10.0,SSW,5.8,-,N/A,,Clear,210,2013-01-08 15:35:00
9:55 AM,35.6,30.2,81,30.01,10.0,South,6.9,-,N/A,,Clear,190,2013-01-08 15:55:00
10:15 AM,37.4,32.0,81,30.01,10.0,SSW,9.2,-,N/A,,Scattered Clouds,210,2013-01-08 16:15:00
10:35 AM,39.2,32.0,75,30.00,10.0,SW,10.4,-,N/A,,Mostly Cloudy,230,2013-01-08 16:35:00
10:55 AM,41.0,32.0,70,30.00,10.0,WSW,10.4,-,N/A,,Overcast,250,2013-01-08 16:55:00
11:15 AM,41.0,32.0,70,29.99,10.0,WSW,10.4,-,N/A,,Overcast,250,2013-01-08 17:15:00
11:35 AM,41.0,32.0,70,29.99,10.0,WSW,11.5,-,N/A,,Overcast,250,2013-01-08 17:35:00
11:55 AM,42.8,32.0,66,29.97,10.0,West,10.4,-,N/A,,Overcast,260,2013-01-08 17:55:00
12:55 PM,46.4,35.6,66,29.95,10.0,SW,9.2,-,N/A,,Overcast,220,2013-01-08 18:55:00
1:15 PM,50.0,35.6,58,29.94,10.0,SW,10.4,-,N/A,,Overcast,220,2013-01-08 19:15:00
1:55 PM,50.0,35.6,58,29.93,10.0,SW,11.5,-,N/A,,Scattered Clouds,220,2013-01-08 19:55:00
2:15 PM,50.0,35.6,58,29.93,10.0,SSW,15.0,-,N/A,,Clear,210,2013-01-08 20:15:00
2:35 PM,50.0,35.6,58,29.92,10.0,SSW,12.7,-,N/A,,Clear,200,2013-01-08 20:35:00
2:55 PM,51.8,37.4,58,29.92,10.0,SSW,11.5,-,N/A,,Clear,200,2013-01-08 20:55:00
3:15 PM,51.8,37.4,58,29.92,10.0,SSW,10.4,-,N/A,,Clear,200,2013-01-08 21:15:00
3:35 PM,51.8,37.4,58,29.93,10.0,SSW,10.4,-,N/A,,Clear,200,2013-01-08 21:35:00
3:55 PM,51.8,37.4,58,29.94,10.0,SSW,10.4,-,N/A,,Clear,200,2013-01-08 21:55:00
4:15 PM,51.8,37.4,58,29.95,10.0,SSW,8.1,-,N/A,,Clear,210,2013-01-08 22:15:00
4:35 PM,51.8,37.4,58,29.95,10.0,SSW,9.2,-,N/A,,Clear,200,2013-01-08 22:35:00
4:55 PM,50.0,37.4,62,29.94,10.0,SW,6.9,-,N/A,,Clear,220,2013-01-08 22:55:00
5:15 PM,50.0,37.4,62,29.95,10.0,SW,4.6,-,N/A,,Clear,230,2013-01-08 23:15:00
5:35 PM,50.0,37.4,62,29.96,10.0,SSW,3.5,-,N/A,,Clear,210,2013-01-08 23:35:00
5:55 PM,46.4,37.4,71,29.98,10.0,South,4.6,-,N/A,,Clear,170,2013-01-08 23:55:00
6:15 PM,41.0,33.8,76,30.00,10.0,South,3.5,-,N/A,,Clear,190,2013-01-09 00:15:00
6:35 PM,42.8,35.6,76,30.02,10.0,Calm,Calm,-,N/A,,Scattered Clouds,0,2013-01-09 00:35:00
6:55 PM,42.8,35.6,76,30.02,10.0,Calm,Calm,-,N/A,,Mostly Cloudy,0,2013-01-09 00:55:00
7:15 PM,41.0,35.6,81,30.02,10.0,Calm,Calm,-,N/A,,Scattered Clouds,0,2013-01-09 01:15:00
7:35 PM,37.4,32.0,81,30.02,10.0,Calm,Calm,-,N/A,,Clear,0,2013-01-09 01:35:00
7:55 PM,37.4,35.6,93,30.02,10.0,Calm,Calm,-,N/A,,Clear,0,2013-01-09 01:55:00
8:15 PM,35.6,32.0,87,30.04,10.0,SW,4.6,-,N/A,,Clear,220,2013-01-09 02:15:00
8:35 PM,35.6,33.8,93,30.05,10.0,Calm,Calm,-,N/A,,Clear,0,2013-01-09 02:35:00
8:55 PM,35.6,33.8,93,30.05,10.0,Calm,Calm,-,N/A,,Clear,0,2013-01-09 02:55:00
9:15 PM,33.8,32.0,93,30.06,7.0,Calm,Calm,-,N/A,,Clear,0,2013-01-09 03:15:00
9:35 PM,33.8,32.0,93,30.06,10.0,Calm,Calm,-,N/A,,Clear,0,2013-01-09 03:35:00
9:55 PM,33.8,32.0,93,30.06,7.0,Calm,Calm,-,N/A,,Clear,0,2013-01-09 03:55:00
10:15 PM,33.8,32.0,93,30.06,7.0,North,4.6,-,N/A,,Clear,360,2013-01-09 04:15:00
10:35 PM,33.8,32.0,93,30.08,7.0,Calm,Calm,-,N/A,,Clear,0,2013-01-09 04:35:00
10:55 PM,33.8,32.0,93,30.10,5.0,NE,5.8,-,N/A,,Clear,50,2013-01-09 04:55:00
11:15 PM,30.2,28.4,93,30.11,5.0,North,3.5,-,N/A,,Clear,10,2013-01-09 05:15:00
11:55 PM,32.0,32.0,100,30.13,4.0,Calm,Calm,-,N/A,,Clear,0,2013-01-09 05:55:00